sensor_id;sensor_type;location;lat;lon;timestamp;P1;durP1;ratioP1;P2;durP2;ratioP2
70953;SDS011;58618;47.490;8.736;2023-03-03T00:01:18;9.90;;;5.23;;
70953;SDS011;58618;47.490;8.736;2023-03-03T00:03:46;9.32;;;4.38;;
70953;SDS011;58618;47.490;8.736;2023-03-03T00:06:13;11.07;;;4.43;;
70953;SDS011;58618;47.490;8.736;2023-03-03T00:08:41;12.57;;;4.95;;
70953;SDS011;58618;47.490;8.736;2023-03-03T00:11:08;8.45;;;4.82;;
70953;SDS011;58618;47.490;8.736;2023-03-03T00:13:40;10.00;;;5.97;;
70953;SDS011;58618;47.490;8.736;2023-03-03T00:16:16;9.85;;;4.75;;
70953;SDS011;58618;47.490;8.736;2023-03-03T00:18:50;7.93;;;3.80;;
70953;SDS011;58618;47.490;8.736;2023-03-03T00:21:27;15.68;;;6.60;;
70953;SDS011;58618;47.490;8.736;2023-03-03T00:26:46;9.53;;;4.13;;
70953;SDS011;58618;47.490;8.736;2023-03-03T00:29:32;8.95;;;4.93;;
70953;SDS011;58618;47.490;8.736;2023-03-03T00:34:51;9.43;;;5.28;;
70953;SDS011;58618;47.490;8.736;2023-03-03T00:37:28;12.90;;;4.97;;
70953;SDS011;58618;47.490;8.736;2023-03-03T00:40:10;7.43;;;4.63;;
70953;SDS011;58618;47.490;8.736;2023-03-03T00:42:42;11.18;;;5.45;;
70953;SDS011;58618;47.490;8.736;2023-03-03T00:45:20;11.35;;;5.07;;
70953;SDS011;58618;47.490;8.736;2023-03-03T00:47:53;5.72;;;3.83;;
70953;SDS011;58618;47.490;8.736;2023-03-03T00:50:25;10.70;;;3.97;;
70953;SDS011;58618;47.490;8.736;2023-03-03T00:53:00;4.07;;;3.00;;
70953;SDS011;58618;47.490;8.736;2023-03-03T00:55:30;8.32;;;5.15;;
70953;SDS011;58618;47.490;8.736;2023-03-03T00:57:58;10.45;;;5.68;;
70953;SDS011;58618;47.490;8.736;2023-03-03T01:00:27;8.57;;;5.35;;
70953;SDS011;58618;47.490;8.736;2023-03-03T01:02:55;11.55;;;5.03;;
70953;SDS011;58618;47.490;8.736;2023-03-03T01:05:24;12.27;;;5.03;;
70953;SDS011;58618;47.490;8.736;2023-03-03T01:07:51;12.00;;;4.70;;
70953;SDS011;58618;47.490;8.736;2023-03-03T01:10:18;11.35;;;5.57;;
70953;SDS011;58618;47.490;8.736;2023-03-03T01:12:45;10.68;;;5.32;;
70953;SDS011;58618;47.490;8.736;2023-03-03T01:15:13;9.45;;;5.07;;
70953;SDS011;58618;47.490;8.736;2023-03-03T01:17:42;8.73;;;5.83;;
70953;SDS011;58618;47.490;8.736;2023-03-03T01:20:10;10.48;;;5.72;;
70953;SDS011;58618;47.490;8.736;2023-03-03T01:22:39;10.00;;;6.20;;
70953;SDS011;58618;47.490;8.736;2023-03-03T01:25:08;10.20;;;4.47;;
70953;SDS011;58618;47.490;8.736;2023-03-03T01:27:35;9.68;;;5.53;;
70953;SDS011;58618;47.490;8.736;2023-03-03T01:30:07;8.63;;;4.93;;
70953;SDS011;58618;47.490;8.736;2023-03-03T01:32:35;15.50;;;7.28;;
70953;SDS011;58618;47.490;8.736;2023-03-03T01:35:04;15.15;;;8.20;;
70953;SDS011;58618;47.490;8.736;2023-03-03T01:37:33;12.32;;;5.30;;
70953;SDS011;58618;47.490;8.736;2023-03-03T01:40:01;11.80;;;6.68;;
70953;SDS011;58618;47.490;8.736;2023-03-03T01:42:30;12.00;;;5.53;;
70953;SDS011;58618;47.490;8.736;2023-03-03T01:45:09;13.02;;;6.28;;
70953;SDS011;58618;47.490;8.736;2023-03-03T01:47:42;18.30;;;6.72;;
70953;SDS011;58618;47.490;8.736;2023-03-03T01:50:16;15.73;;;6.20;;
70953;SDS011;58618;47.490;8.736;2023-03-03T01:52:54;12.02;;;5.68;;
70953;SDS011;58618;47.490;8.736;2023-03-03T01:55:23;12.27;;;6.67;;
70953;SDS011;58618;47.490;8.736;2023-03-03T01:57:55;13.00;;;6.10;;
70953;SDS011;58618;47.490;8.736;2023-03-03T02:00:25;8.55;;;5.38;;
70953;SDS011;58618;47.490;8.736;2023-03-03T02:02:53;17.00;;;7.35;;
70953;SDS011;58618;47.490;8.736;2023-03-03T02:05:22;10.05;;;5.43;;
70953;SDS011;58618;47.490;8.736;2023-03-03T02:07:51;15.00;;;7.27;;
70953;SDS011;58618;47.490;8.736;2023-03-03T02:10:21;14.75;;;6.75;;
70953;SDS011;58618;47.490;8.736;2023-03-03T02:12:49;19.77;;;6.63;;
70953;SDS011;58618;47.490;8.736;2023-03-03T02:15:19;11.32;;;6.82;;
70953;SDS011;58618;47.490;8.736;2023-03-03T02:17:48;19.63;;;7.18;;
70953;SDS011;58618;47.490;8.736;2023-03-03T02:20:20;12.80;;;7.53;;
70953;SDS011;58618;47.490;8.736;2023-03-03T02:23:02;22.25;;;8.45;;
70953;SDS011;58618;47.490;8.736;2023-03-03T02:25:36;16.05;;;6.75;;
70953;SDS011;58618;47.490;8.736;2023-03-03T02:28:10;14.20;;;6.72;;
70953;SDS011;58618;47.490;8.736;2023-03-03T02:30:38;13.60;;;6.57;;
70953;SDS011;58618;47.490;8.736;2023-03-03T02:33:06;11.83;;;7.40;;
70953;SDS011;58618;47.490;8.736;2023-03-03T02:35:34;9.20;;;6.05;;
70953;SDS011;58618;47.490;8.736;2023-03-03T02:38:06;8.95;;;5.35;;
70953;SDS011;58618;47.490;8.736;2023-03-03T02:40:41;24.15;;;7.75;;
70953;SDS011;58618;47.490;8.736;2023-03-03T02:43:16;17.65;;;6.13;;
70953;SDS011;58618;47.490;8.736;2023-03-03T02:45:49;15.93;;;7.60;;
70953;SDS011;58618;47.490;8.736;2023-03-03T02:48:18;15.77;;;6.45;;
70953;SDS011;58618;47.490;8.736;2023-03-03T02:50:45;13.65;;;7.40;;
70953;SDS011;58618;47.490;8.736;2023-03-03T02:53:12;15.18;;;8.15;;
70953;SDS011;58618;47.490;8.736;2023-03-03T02:55:40;12.20;;;6.90;;
70953;SDS011;58618;47.490;8.736;2023-03-03T02:58:08;13.00;;;6.93;;
70953;SDS011;58618;47.490;8.736;2023-03-03T03:00:36;13.15;;;6.18;;
70953;SDS011;58618;47.490;8.736;2023-03-03T03:03:03;11.65;;;6.70;;
70953;SDS011;58618;47.490;8.736;2023-03-03T03:05:31;14.25;;;6.72;;
70953;SDS011;58618;47.490;8.736;2023-03-03T03:07:58;13.38;;;7.47;;
70953;SDS011;58618;47.490;8.736;2023-03-03T03:10:26;9.37;;;6.40;;
70953;SDS011;58618;47.490;8.736;2023-03-03T03:12:53;10.65;;;6.40;;
70953;SDS011;58618;47.490;8.736;2023-03-03T03:15:20;15.52;;;7.18;;
70953;SDS011;58618;47.490;8.736;2023-03-03T03:17:49;13.30;;;6.68;;
70953;SDS011;58618;47.490;8.736;2023-03-03T03:20:16;14.68;;;8.50;;
70953;SDS011;58618;47.490;8.736;2023-03-03T03:22:43;15.73;;;8.20;;
70953;SDS011;58618;47.490;8.736;2023-03-03T03:25:11;16.45;;;7.20;;
70953;SDS011;58618;47.490;8.736;2023-03-03T03:27:38;12.38;;;7.07;;
70953;SDS011;58618;47.490;8.736;2023-03-03T03:30:06;12.02;;;6.78;;
70953;SDS011;58618;47.490;8.736;2023-03-03T03:32:34;14.93;;;7.13;;
70953;SDS011;58618;47.490;8.736;2023-03-03T03:35:03;16.00;;;8.10;;
70953;SDS011;58618;47.490;8.736;2023-03-03T03:37:31;15.82;;;6.45;;
70953;SDS011;58618;47.490;8.736;2023-03-03T03:39:58;17.15;;;8.85;;
70953;SDS011;58618;47.490;8.736;2023-03-03T03:42:25;16.45;;;6.70;;
70953;SDS011;58618;47.490;8.736;2023-03-03T03:44:52;14.65;;;7.28;;
70953;SDS011;58618;47.490;8.736;2023-03-03T03:47:19;18.60;;;7.00;;
70953;SDS011;58618;47.490;8.736;2023-03-03T03:49:47;14.65;;;8.27;;
70953;SDS011;58618;47.490;8.736;2023-03-03T03:52:16;12.70;;;6.05;;
70953;SDS011;58618;47.490;8.736;2023-03-03T03:54:43;10.15;;;5.15;;
70953;SDS011;58618;47.490;8.736;2023-03-03T03:57:11;17.85;;;7.78;;
70953;SDS011;58618;47.490;8.736;2023-03-03T03:59:39;13.97;;;6.70;;
70953;SDS011;58618;47.490;8.736;2023-03-03T04:02:06;16.67;;;6.53;;
70953;SDS011;58618;47.490;8.736;2023-03-03T04:04:33;13.63;;;7.55;;
70953;SDS011;58618;47.490;8.736;2023-03-03T04:07:01;15.77;;;7.25;;
70953;SDS011;58618;47.490;8.736;2023-03-03T04:09:29;19.90;;;8.25;;
70953;SDS011;58618;47.490;8.736;2023-03-03T04:11:57;9.40;;;5.37;;
70953;SDS011;58618;47.490;8.736;2023-03-03T04:14:24;17.25;;;7.10;;
70953;SDS011;58618;47.490;8.736;2023-03-03T04:16:51;13.95;;;7.32;;
70953;SDS011;58618;47.490;8.736;2023-03-03T04:19:18;13.32;;;6.65;;
70953;SDS011;58618;47.490;8.736;2023-03-03T04:21:46;12.73;;;7.03;;
70953;SDS011;58618;47.490;8.736;2023-03-03T04:24:14;10.60;;;6.30;;
70953;SDS011;58618;47.490;8.736;2023-03-03T04:26:42;16.13;;;7.80;;
70953;SDS011;58618;47.490;8.736;2023-03-03T04:29:09;18.77;;;8.85;;
70953;SDS011;58618;47.490;8.736;2023-03-03T04:31:39;11.68;;;8.13;;
70953;SDS011;58618;47.490;8.736;2023-03-03T04:34:07;14.13;;;6.60;;
70953;SDS011;58618;47.490;8.736;2023-03-03T04:36:34;14.10;;;6.77;;
70953;SDS011;58618;47.490;8.736;2023-03-03T04:39:01;15.77;;;7.78;;
70953;SDS011;58618;47.490;8.736;2023-03-03T04:41:30;16.67;;;8.23;;
70953;SDS011;58618;47.490;8.736;2023-03-03T04:43:58;14.52;;;8.45;;
70953;SDS011;58618;47.490;8.736;2023-03-03T04:46:25;12.68;;;8.13;;
70953;SDS011;58618;47.490;8.736;2023-03-03T04:48:53;16.77;;;8.13;;
70953;SDS011;58618;47.490;8.736;2023-03-03T04:51:21;20.95;;;8.48;;
70953;SDS011;58618;47.490;8.736;2023-03-03T04:53:48;17.67;;;6.72;;
70953;SDS011;58618;47.490;8.736;2023-03-03T04:56:15;15.88;;;7.30;;
70953;SDS011;58618;47.490;8.736;2023-03-03T04:58:42;18.65;;;7.65;;
70953;SDS011;58618;47.490;8.736;2023-03-03T05:01:13;12.33;;;6.77;;
70953;SDS011;58618;47.490;8.736;2023-03-03T05:03:41;14.63;;;7.90;;
70953;SDS011;58618;47.490;8.736;2023-03-03T05:06:08;18.33;;;9.00;;
70953;SDS011;58618;47.490;8.736;2023-03-03T05:08:35;24.05;;;9.52;;
70953;SDS011;58618;47.490;8.736;2023-03-03T05:11:04;14.13;;;7.95;;
70953;SDS011;58618;47.490;8.736;2023-03-03T05:13:32;11.67;;;6.37;;
70953;SDS011;58618;47.490;8.736;2023-03-03T05:15:59;16.80;;;7.75;;
70953;SDS011;58618;47.490;8.736;2023-03-03T05:18:28;16.55;;;7.80;;
70953;SDS011;58618;47.490;8.736;2023-03-03T05:20:55;13.18;;;8.10;;
70953;SDS011;58618;47.490;8.736;2023-03-03T05:23:23;17.65;;;6.78;;
70953;SDS011;58618;47.490;8.736;2023-03-03T05:25:50;13.97;;;8.00;;
70953;SDS011;58618;47.490;8.736;2023-03-03T05:28:17;15.40;;;6.78;;
70953;SDS011;58618;47.490;8.736;2023-03-03T05:30:45;11.27;;;6.80;;
70953;SDS011;58618;47.490;8.736;2023-03-03T05:33:13;19.05;;;8.32;;
70953;SDS011;58618;47.490;8.736;2023-03-03T05:35:43;20.70;;;8.43;;
70953;SDS011;58618;47.490;8.736;2023-03-03T05:38:10;13.57;;;7.40;;
70953;SDS011;58618;47.490;8.736;2023-03-03T05:40:37;14.00;;;7.10;;
70953;SDS011;58618;47.490;8.736;2023-03-03T05:43:05;15.38;;;7.32;;
70953;SDS011;58618;47.490;8.736;2023-03-03T05:45:32;12.40;;;6.75;;
70953;SDS011;58618;47.490;8.736;2023-03-03T05:48:00;17.20;;;7.72;;
70953;SDS011;58618;47.490;8.736;2023-03-03T05:50:27;17.30;;;8.70;;
70953;SDS011;58618;47.490;8.736;2023-03-03T05:52:56;19.23;;;9.27;;
70953;SDS011;58618;47.490;8.736;2023-03-03T05:55:24;20.27;;;8.35;;
70953;SDS011;58618;47.490;8.736;2023-03-03T05:57:51;15.45;;;7.85;;
70953;SDS011;58618;47.490;8.736;2023-03-03T06:00:19;15.07;;;6.47;;
70953;SDS011;58618;47.490;8.736;2023-03-03T06:02:46;14.73;;;7.13;;
70953;SDS011;58618;47.490;8.736;2023-03-03T06:05:13;14.68;;;7.25;;
70953;SDS011;58618;47.490;8.736;2023-03-03T06:07:40;15.20;;;7.25;;
70953;SDS011;58618;47.490;8.736;2023-03-03T06:10:10;12.70;;;7.07;;
70953;SDS011;58618;47.490;8.736;2023-03-03T06:12:38;15.02;;;7.72;;
70953;SDS011;58618;47.490;8.736;2023-03-03T06:15:06;15.67;;;7.40;;
70953;SDS011;58618;47.490;8.736;2023-03-03T06:17:35;20.23;;;8.43;;
70953;SDS011;58618;47.490;8.736;2023-03-03T06:20:02;15.85;;;8.45;;
70953;SDS011;58618;47.490;8.736;2023-03-03T06:22:30;16.63;;;7.40;;
70953;SDS011;58618;47.490;8.736;2023-03-03T06:24:57;13.75;;;7.85;;
70953;SDS011;58618;47.490;8.736;2023-03-03T06:27:26;16.23;;;6.30;;
70953;SDS011;58618;47.490;8.736;2023-03-03T06:29:53;14.18;;;7.25;;
70953;SDS011;58618;47.490;8.736;2023-03-03T06:32:21;17.15;;;7.65;;
70953;SDS011;58618;47.490;8.736;2023-03-03T06:34:48;18.65;;;6.95;;
70953;SDS011;58618;47.490;8.736;2023-03-03T06:37:15;17.42;;;8.93;;
70953;SDS011;58618;47.490;8.736;2023-03-03T06:39:43;18.30;;;7.13;;
70953;SDS011;58618;47.490;8.736;2023-03-03T06:42:10;11.35;;;7.28;;
70953;SDS011;58618;47.490;8.736;2023-03-03T06:44:39;16.23;;;8.02;;
70953;SDS011;58618;47.490;8.736;2023-03-03T06:47:06;15.18;;;6.80;;
70953;SDS011;58618;47.490;8.736;2023-03-03T06:49:33;19.52;;;9.25;;
70953;SDS011;58618;47.490;8.736;2023-03-03T06:52:01;16.50;;;7.73;;
70953;SDS011;58618;47.490;8.736;2023-03-03T06:54:37;20.17;;;9.32;;
70953;SDS011;58618;47.490;8.736;2023-03-03T06:57:07;17.33;;;7.00;;
70953;SDS011;58618;47.490;8.736;2023-03-03T06:59:43;19.40;;;8.35;;
70953;SDS011;58618;47.490;8.736;2023-03-03T07:02:13;14.30;;;7.50;;
70953;SDS011;58618;47.490;8.736;2023-03-03T07:04:43;19.43;;;8.40;;
70953;SDS011;58618;47.490;8.736;2023-03-03T07:07:14;20.33;;;8.20;;
70953;SDS011;58618;47.490;8.736;2023-03-03T07:09:46;15.93;;;7.78;;
70953;SDS011;58618;47.490;8.736;2023-03-03T07:12:15;13.50;;;9.07;;
70953;SDS011;58618;47.490;8.736;2023-03-03T07:14:49;13.30;;;7.07;;
70953;SDS011;58618;47.490;8.736;2023-03-03T07:17:24;18.93;;;7.57;;
70953;SDS011;58618;47.490;8.736;2023-03-03T07:19:53;18.00;;;9.13;;
70953;SDS011;58618;47.490;8.736;2023-03-03T07:22:22;20.98;;;8.73;;
70953;SDS011;58618;47.490;8.736;2023-03-03T07:24:52;20.35;;;8.32;;
70953;SDS011;58618;47.490;8.736;2023-03-03T07:27:47;21.92;;;9.20;;
70953;SDS011;58618;47.490;8.736;2023-03-03T07:30:24;16.57;;;8.83;;
70953;SDS011;58618;47.490;8.736;2023-03-03T07:32:55;17.95;;;7.65;;
70953;SDS011;58618;47.490;8.736;2023-03-03T07:35:29;24.63;;;8.82;;
70953;SDS011;58618;47.490;8.736;2023-03-03T07:38:09;14.10;;;8.43;;
70953;SDS011;58618;47.490;8.736;2023-03-03T07:40:47;23.55;;;9.50;;
70953;SDS011;58618;47.490;8.736;2023-03-03T07:43:20;20.23;;;8.60;;
70953;SDS011;58618;47.490;8.736;2023-03-03T07:45:59;17.10;;;7.70;;
70953;SDS011;58618;47.490;8.736;2023-03-03T07:48:29;23.48;;;9.73;;
70953;SDS011;58618;47.490;8.736;2023-03-03T07:51:03;18.20;;;8.85;;
70953;SDS011;58618;47.490;8.736;2023-03-03T07:56:43;13.37;;;8.43;;
70953;SDS011;58618;47.490;8.736;2023-03-03T07:59:21;19.35;;;8.48;;
70953;SDS011;58618;47.490;8.736;2023-03-03T08:02:28;22.25;;;8.05;;
70953;SDS011;58618;47.490;8.736;2023-03-03T08:08:11;17.38;;;8.45;;
70953;SDS011;58618;47.490;8.736;2023-03-03T08:10:46;18.13;;;8.87;;
70953;SDS011;58618;47.490;8.736;2023-03-03T08:13:18;23.77;;;8.73;;
70953;SDS011;58618;47.490;8.736;2023-03-03T08:15:47;16.98;;;8.02;;
70953;SDS011;58618;47.490;8.736;2023-03-03T08:18:23;19.42;;;10.50;;
70953;SDS011;58618;47.490;8.736;2023-03-03T08:20:55;19.88;;;8.82;;
70953;SDS011;58618;47.490;8.736;2023-03-03T08:23:24;19.13;;;8.90;;
70953;SDS011;58618;47.490;8.736;2023-03-03T08:25:51;22.55;;;10.52;;
70953;SDS011;58618;47.490;8.736;2023-03-03T08:28:19;30.30;;;12.13;;
70953;SDS011;58618;47.490;8.736;2023-03-03T08:30:47;26.83;;;11.02;;
70953;SDS011;58618;47.490;8.736;2023-03-03T08:33:15;27.58;;;9.38;;
70953;SDS011;58618;47.490;8.736;2023-03-03T08:35:45;24.03;;;10.07;;
70953;SDS011;58618;47.490;8.736;2023-03-03T08:38:13;32.10;;;12.05;;
70953;SDS011;58618;47.490;8.736;2023-03-03T08:40:42;21.42;;;10.38;;
70953;SDS011;58618;47.490;8.736;2023-03-03T08:43:10;33.00;;;11.05;;
70953;SDS011;58618;47.490;8.736;2023-03-03T08:45:41;26.50;;;11.40;;
70953;SDS011;58618;47.490;8.736;2023-03-03T08:48:10;24.57;;;10.80;;
70953;SDS011;58618;47.490;8.736;2023-03-03T08:50:38;25.55;;;9.57;;
70953;SDS011;58618;47.490;8.736;2023-03-03T08:53:07;22.02;;;9.52;;
70953;SDS011;58618;47.490;8.736;2023-03-03T08:55:35;25.13;;;10.80;;
70953;SDS011;58618;47.490;8.736;2023-03-03T08:58:03;22.17;;;9.57;;
70953;SDS011;58618;47.490;8.736;2023-03-03T09:00:30;19.30;;;9.77;;
70953;SDS011;58618;47.490;8.736;2023-03-03T09:02:58;19.67;;;9.63;;
70953;SDS011;58618;47.490;8.736;2023-03-03T09:05:25;21.58;;;10.52;;
70953;SDS011;58618;47.490;8.736;2023-03-03T09:07:53;22.90;;;9.75;;
70953;SDS011;58618;47.490;8.736;2023-03-03T09:10:23;22.83;;;9.73;;
70953;SDS011;58618;47.490;8.736;2023-03-03T09:12:55;21.17;;;10.33;;
70953;SDS011;58618;47.490;8.736;2023-03-03T09:15:26;20.42;;;9.05;;
70953;SDS011;58618;47.490;8.736;2023-03-03T09:17:56;19.75;;;8.68;;
70953;SDS011;58618;47.490;8.736;2023-03-03T09:20:30;21.55;;;9.73;;
70953;SDS011;58618;47.490;8.736;2023-03-03T09:23:15;19.25;;;8.23;;
70953;SDS011;58618;47.490;8.736;2023-03-03T09:26:05;17.97;;;9.17;;
70953;SDS011;58618;47.490;8.736;2023-03-03T09:28:51;21.92;;;8.77;;
70953;SDS011;58618;47.490;8.736;2023-03-03T09:31:30;25.98;;;10.63;;
70953;SDS011;58618;47.490;8.736;2023-03-03T09:34:09;20.08;;;10.13;;
70953;SDS011;58618;47.490;8.736;2023-03-03T09:36:41;21.20;;;8.48;;
70953;SDS011;58618;47.490;8.736;2023-03-03T09:39:11;22.20;;;9.37;;
70953;SDS011;58618;47.490;8.736;2023-03-03T09:45:09;20.67;;;9.18;;
70953;SDS011;58618;47.490;8.736;2023-03-03T09:47:49;20.33;;;8.90;;
70953;SDS011;58618;47.490;8.736;2023-03-03T09:50:29;18.58;;;8.95;;
70953;SDS011;58618;47.490;8.736;2023-03-03T09:53:06;27.70;;;10.20;;
70953;SDS011;58618;47.490;8.736;2023-03-03T09:55:47;17.60;;;8.75;;
70953;SDS011;58618;47.490;8.736;2023-03-03T09:58:29;24.90;;;9.50;;
70953;SDS011;58618;47.490;8.736;2023-03-03T10:01:15;23.58;;;10.77;;
70953;SDS011;58618;47.490;8.736;2023-03-03T10:04:09;23.70;;;9.63;;
70953;SDS011;58618;47.490;8.736;2023-03-03T10:06:49;25.10;;;10.43;;
70953;SDS011;58618;47.490;8.736;2023-03-03T10:09:31;28.40;;;10.32;;
70953;SDS011;58618;47.490;8.736;2023-03-03T10:12:21;22.20;;;10.63;;
70953;SDS011;58618;47.490;8.736;2023-03-03T10:15:00;24.88;;;9.45;;
70953;SDS011;58618;47.490;8.736;2023-03-03T10:17:40;26.30;;;10.98;;
70953;SDS011;58618;47.490;8.736;2023-03-03T10:20:18;27.83;;;11.63;;
70953;SDS011;58618;47.490;8.736;2023-03-03T10:22:55;30.67;;;12.00;;
70953;SDS011;58618;47.490;8.736;2023-03-03T10:25:30;29.13;;;12.00;;
70953;SDS011;58618;47.490;8.736;2023-03-03T10:28:14;21.42;;;10.05;;
70953;SDS011;58618;47.490;8.736;2023-03-03T10:30:59;27.20;;;11.60;;
70953;SDS011;58618;47.490;8.736;2023-03-03T10:33:36;20.90;;;8.90;;
70953;SDS011;58618;47.490;8.736;2023-03-03T10:36:17;22.42;;;10.27;;
70953;SDS011;58618;47.490;8.736;2023-03-03T10:39:04;27.27;;;11.52;;
70953;SDS011;58618;47.490;8.736;2023-03-03T10:41:54;23.55;;;9.25;;
70953;SDS011;58618;47.490;8.736;2023-03-03T10:44:34;18.80;;;8.68;;
70953;SDS011;58618;47.490;8.736;2023-03-03T10:47:25;21.83;;;10.57;;
70953;SDS011;58618;47.490;8.736;2023-03-03T10:50:02;27.23;;;10.80;;
70953;SDS011;58618;47.490;8.736;2023-03-03T10:52:41;30.80;;;12.45;;
70953;SDS011;58618;47.490;8.736;2023-03-03T11:01:08;24.47;;;10.37;;
70953;SDS011;58618;47.490;8.736;2023-03-03T11:03:50;22.40;;;9.98;;
70953;SDS011;58618;47.490;8.736;2023-03-03T11:06:35;24.45;;;9.82;;
70953;SDS011;58618;47.490;8.736;2023-03-03T11:09:13;24.63;;;11.48;;
70953;SDS011;58618;47.490;8.736;2023-03-03T11:11:52;27.58;;;10.82;;
70953;SDS011;58618;47.490;8.736;2023-03-03T11:14:28;22.67;;;10.03;;
70953;SDS011;58618;47.490;8.736;2023-03-03T11:17:01;19.92;;;9.98;;
70953;SDS011;58618;47.490;8.736;2023-03-03T11:19:39;24.15;;;9.93;;
70953;SDS011;58618;47.490;8.736;2023-03-03T11:22:23;32.63;;;11.10;;
70953;SDS011;58618;47.490;8.736;2023-03-03T11:25:01;21.73;;;9.27;;
70953;SDS011;58618;47.490;8.736;2023-03-03T11:27:43;27.17;;;11.50;;
70953;SDS011;58618;47.490;8.736;2023-03-03T11:30:33;25.42;;;10.07;;
70953;SDS011;58618;47.490;8.736;2023-03-03T11:33:09;25.40;;;11.10;;
70953;SDS011;58618;47.490;8.736;2023-03-03T11:35:44;24.42;;;10.95;;
70953;SDS011;58618;47.490;8.736;2023-03-03T11:38:23;24.10;;;10.40;;
70953;SDS011;58618;47.490;8.736;2023-03-03T11:41:00;24.37;;;10.57;;
70953;SDS011;58618;47.490;8.736;2023-03-03T11:43:35;37.05;;;12.90;;
70953;SDS011;58618;47.490;8.736;2023-03-03T11:46:08;24.15;;;10.05;;
70953;SDS011;58618;47.490;8.736;2023-03-03T11:48:41;22.35;;;11.20;;
70953;SDS011;58618;47.490;8.736;2023-03-03T11:51:21;24.83;;;11.13;;
70953;SDS011;58618;47.490;8.736;2023-03-03T11:53:58;24.63;;;11.40;;
70953;SDS011;58618;47.490;8.736;2023-03-03T11:56:32;27.15;;;11.43;;
70953;SDS011;58618;47.490;8.736;2023-03-03T12:02:14;25.30;;;11.07;;
70953;SDS011;58618;47.490;8.736;2023-03-03T12:04:54;26.17;;;10.75;;
70953;SDS011;58618;47.490;8.736;2023-03-03T12:07:28;21.70;;;10.33;;
70953;SDS011;58618;47.490;8.736;2023-03-03T12:10:10;24.00;;;10.63;;
70953;SDS011;58618;47.490;8.736;2023-03-03T12:12:45;22.65;;;8.93;;
70953;SDS011;58618;47.490;8.736;2023-03-03T12:15:20;21.27;;;10.57;;
70953;SDS011;58618;47.490;8.736;2023-03-03T12:18:05;25.35;;;10.00;;
70953;SDS011;58618;47.490;8.736;2023-03-03T12:20:55;27.27;;;10.47;;
70953;SDS011;58618;47.490;8.736;2023-03-03T12:23:43;24.63;;;10.13;;
70953;SDS011;58618;47.490;8.736;2023-03-03T12:26:24;30.20;;;11.70;;
70953;SDS011;58618;47.490;8.736;2023-03-03T12:28:58;25.27;;;11.98;;
70953;SDS011;58618;47.490;8.736;2023-03-03T12:31:38;25.67;;;10.90;;
70953;SDS011;58618;47.490;8.736;2023-03-03T12:34:17;24.80;;;10.97;;
70953;SDS011;58618;47.490;8.736;2023-03-03T12:36:57;29.77;;;10.90;;
70953;SDS011;58618;47.490;8.736;2023-03-03T12:39:37;25.33;;;10.68;;
70953;SDS011;58618;47.490;8.736;2023-03-03T12:42:13;27.27;;;11.40;;
70953;SDS011;58618;47.490;8.736;2023-03-03T12:44:52;25.60;;;11.25;;
70953;SDS011;58618;47.490;8.736;2023-03-03T12:47:32;27.53;;;11.97;;
70953;SDS011;58618;47.490;8.736;2023-03-03T12:50:18;22.15;;;10.63;;
70953;SDS011;58618;47.490;8.736;2023-03-03T12:52:55;26.40;;;11.45;;
70953;SDS011;58618;47.490;8.736;2023-03-03T12:55:35;26.88;;;11.32;;
70953;SDS011;58618;47.490;8.736;2023-03-03T12:58:11;27.90;;;12.45;;
70953;SDS011;58618;47.490;8.736;2023-03-03T13:00:48;23.20;;;11.20;;
70953;SDS011;58618;47.490;8.736;2023-03-03T13:03:27;31.00;;;13.27;;
70953;SDS011;58618;47.490;8.736;2023-03-03T13:06:06;26.02;;;11.00;;
70953;SDS011;58618;47.490;8.736;2023-03-03T13:08:45;21.38;;;11.55;;
70953;SDS011;58618;47.490;8.736;2023-03-03T13:11:32;23.90;;;11.07;;
70953;SDS011;58618;47.490;8.736;2023-03-03T13:14:14;27.53;;;12.10;;
70953;SDS011;58618;47.490;8.736;2023-03-03T13:17:00;25.80;;;11.38;;
70953;SDS011;58618;47.490;8.736;2023-03-03T13:19:35;21.50;;;9.82;;
70953;SDS011;58618;47.490;8.736;2023-03-03T13:22:07;27.92;;;12.40;;
70953;SDS011;58618;47.490;8.736;2023-03-03T13:24:44;22.65;;;10.45;;
70953;SDS011;58618;47.490;8.736;2023-03-03T13:27:24;27.13;;;11.33;;
70953;SDS011;58618;47.490;8.736;2023-03-03T13:29:59;25.67;;;11.68;;
70953;SDS011;58618;47.490;8.736;2023-03-03T13:32:31;24.65;;;11.07;;
70953;SDS011;58618;47.490;8.736;2023-03-03T13:35:06;29.33;;;12.93;;
70953;SDS011;58618;47.490;8.736;2023-03-03T13:37:35;29.88;;;12.73;;
70953;SDS011;58618;47.490;8.736;2023-03-03T13:40:12;23.33;;;10.43;;
70953;SDS011;58618;47.490;8.736;2023-03-03T13:42:45;28.45;;;12.38;;
70953;SDS011;58618;47.490;8.736;2023-03-03T13:45:17;27.02;;;10.52;;
70953;SDS011;58618;47.490;8.736;2023-03-03T13:47:52;27.88;;;12.50;;
70953;SDS011;58618;47.490;8.736;2023-03-03T13:50:29;26.52;;;12.40;;
70953;SDS011;58618;47.490;8.736;2023-03-03T13:53:14;26.07;;;11.63;;
70953;SDS011;58618;47.490;8.736;2023-03-03T13:55:56;27.75;;;11.43;;
70953;SDS011;58618;47.490;8.736;2023-03-03T13:58:36;28.50;;;12.48;;
70953;SDS011;58618;47.490;8.736;2023-03-03T14:01:08;31.90;;;12.02;;
70953;SDS011;58618;47.490;8.736;2023-03-03T14:03:52;24.55;;;10.93;;
70953;SDS011;58618;47.490;8.736;2023-03-03T14:06:26;21.47;;;10.97;;
70953;SDS011;58618;47.490;8.736;2023-03-03T14:09:05;31.65;;;12.85;;
70953;SDS011;58618;47.490;8.736;2023-03-03T14:11:48;28.55;;;12.32;;
70953;SDS011;58618;47.490;8.736;2023-03-03T14:14:24;24.08;;;11.85;;
70953;SDS011;58618;47.490;8.736;2023-03-03T14:17:07;24.33;;;10.68;;
70953;SDS011;58618;47.490;8.736;2023-03-03T14:19:41;29.30;;;11.83;;
70953;SDS011;58618;47.490;8.736;2023-03-03T14:22:15;30.27;;;12.02;;
70953;SDS011;58618;47.490;8.736;2023-03-03T14:25:02;31.38;;;13.23;;
70953;SDS011;58618;47.490;8.736;2023-03-03T14:27:35;26.92;;;10.20;;
70953;SDS011;58618;47.490;8.736;2023-03-03T14:30:27;33.83;;;15.10;;
70953;SDS011;58618;47.490;8.736;2023-03-03T14:33:00;37.67;;;13.37;;
70953;SDS011;58618;47.490;8.736;2023-03-03T14:35:32;28.52;;;12.07;;
70953;SDS011;58618;47.490;8.736;2023-03-03T14:38:01;32.13;;;11.73;;
70953;SDS011;58618;47.490;8.736;2023-03-03T14:40:49;26.08;;;10.30;;
70953;SDS011;58618;47.490;8.736;2023-03-03T14:43:32;30.15;;;12.27;;
70953;SDS011;58618;47.490;8.736;2023-03-03T14:46:17;33.90;;;14.30;;
70953;SDS011;58618;47.490;8.736;2023-03-03T14:48:58;29.02;;;12.00;;
70953;SDS011;58618;47.490;8.736;2023-03-03T14:51:28;28.17;;;12.40;;
70953;SDS011;58618;47.490;8.736;2023-03-03T14:54:23;26.83;;;12.32;;
70953;SDS011;58618;47.490;8.736;2023-03-03T14:57:10;28.75;;;11.40;;
70953;SDS011;58618;47.490;8.736;2023-03-03T14:59:44;29.30;;;13.53;;
70953;SDS011;58618;47.490;8.736;2023-03-03T15:02:35;26.15;;;11.30;;
70953;SDS011;58618;47.490;8.736;2023-03-03T15:07:50;31.73;;;12.60;;
70953;SDS011;58618;47.490;8.736;2023-03-03T15:10:28;28.60;;;13.07;;
70953;SDS011;58618;47.490;8.736;2023-03-03T15:12:58;29.70;;;12.10;;
70953;SDS011;58618;47.490;8.736;2023-03-03T15:15:45;28.33;;;13.10;;
70953;SDS011;58618;47.490;8.736;2023-03-03T15:18:22;30.85;;;11.80;;
70953;SDS011;58618;47.490;8.736;2023-03-03T15:20:50;28.17;;;11.70;;
70953;SDS011;58618;47.490;8.736;2023-03-03T15:23:33;24.42;;;11.10;;
70953;SDS011;58618;47.490;8.736;2023-03-03T15:26:16;26.63;;;10.07;;
70953;SDS011;58618;47.490;8.736;2023-03-03T15:28:54;30.77;;;12.63;;
70953;SDS011;58618;47.490;8.736;2023-03-03T15:31:35;28.98;;;11.90;;
70953;SDS011;58618;47.490;8.736;2023-03-03T15:34:20;25.60;;;11.30;;